sensor_id;sensor_type;location;lat;lon;timestamp;temperature;humidity
5919;DHT22;2985;48.142;16.344;2022-07-24T00:02:40;24.90;85.40
5919;DHT22;2985;48.142;16.344;2022-07-24T00:07:30;24.90;86.00
5919;DHT22;2985;48.142;16.344;2022-07-24T00:12:21;24.80;86.60
5919;DHT22;2985;48.142;16.344;2022-07-24T00:17:12;24.80;87.80
5919;DHT22;2985;48.142;16.344;2022-07-24T00:22:03;24.60;89.90
5919;DHT22;2985;48.142;16.344;2022-07-24T00:26:54;24.50;90.40
5919;DHT22;2985;48.142;16.344;2022-07-24T00:31:45;24.50;91.00
5919;DHT22;2985;48.142;16.344;2022-07-24T00:36:35;24.30;91.50
5919;DHT22;2985;48.142;16.344;2022-07-24T00:41:26;24.20;92.00
5919;DHT22;2985;48.142;16.344;2022-07-24T00:46:18;24.20;92.30
5919;DHT22;2985;48.142;16.344;2022-07-24T00:51:09;24.10;93.00
5919;DHT22;2985;48.142;16.344;2022-07-24T00:56:00;24.10;93.20
5919;DHT22;2985;48.142;16.344;2022-07-24T01:00:50;24.00;93.90
5919;DHT22;2985;48.142;16.344;2022-07-24T01:05:43;24.00;94.40
5919;DHT22;2985;48.142;16.344;2022-07-24T01:10:35;23.90;94.80
5919;DHT22;2985;48.142;16.344;2022-07-24T01:15:26;23.90;95.10
5919;DHT22;2985;48.142;16.344;2022-07-24T01:20:17;23.80;95.80
5919;DHT22;2985;48.142;16.344;2022-07-24T01:25:08;23.70;96.30
5919;DHT22;2985;48.142;16.344;2022-07-24T01:29:58;23.70;96.70
5919;DHT22;2985;48.142;16.344;2022-07-24T01:34:49;23.60;97.00
5919;DHT22;2985;48.142;16.344;2022-07-24T01:39:40;23.60;97.30
5919;DHT22;2985;48.142;16.344;2022-07-24T01:44:31;23.50;97.50
5919;DHT22;2985;48.142;16.344;2022-07-24T01:49:22;23.40;98.60
5919;DHT22;2985;48.142;16.344;2022-07-24T01:54:13;23.30;99.40
5919;DHT22;2985;48.142;16.344;2022-07-24T01:59:03;23.20;99.90
5919;DHT22;2985;48.142;16.344;2022-07-24T02:03:54;23.20;99.90
5919;DHT22;2985;48.142;16.344;2022-07-24T02:08:45;23.20;99.90
5919;DHT22;2985;48.142;16.344;2022-07-24T02:13:36;23.10;99.90
5919;DHT22;2985;48.142;16.344;2022-07-24T02:18:27;23.00;99.90
5919;DHT22;2985;48.142;16.344;2022-07-24T02:23:18;23.00;99.90
5919;DHT22;2985;48.142;16.344;2022-07-24T02:28:09;22.90;99.90
5919;DHT22;2985;48.142;16.344;2022-07-24T02:32:59;22.80;99.90
5919;DHT22;2985;48.142;16.344;2022-07-24T02:37:50;22.80;99.90
5919;DHT22;2985;48.142;16.344;2022-07-24T02:42:41;22.70;99.90
5919;DHT22;2985;48.142;16.344;2022-07-24T02:47:32;22.70;99.90
5919;DHT22;2985;48.142;16.344;2022-07-24T02:52:23;22.70;99.90
5919;DHT22;2985;48.142;16.344;2022-07-24T02:57:14;22.60;99.90
5919;DHT22;2985;48.142;16.344;2022-07-24T03:02:05;22.70;99.90
5919;DHT22;2985;48.142;16.344;2022-07-24T03:06:56;22.50;99.90
5919;DHT22;2985;48.142;16.344;2022-07-24T03:11:47;22.50;99.90
5919;DHT22;2985;48.142;16.344;2022-07-24T03:16:38;22.30;99.90
5919;DHT22;2985;48.142;16.344;2022-07-24T03:21:31;22.30;99.90
5919;DHT22;2985;48.142;16.344;2022-07-24T03:26:22;22.20;99.90
5919;DHT22;2985;48.142;16.344;2022-07-24T03:31:13;22.20;99.90
5919;DHT22;2985;48.142;16.344;2022-07-24T03:36:04;22.10;99.90
5919;DHT22;2985;48.142;16.344;2022-07-24T03:40:54;22.10;99.90
5919;DHT22;2985;48.142;16.344;2022-07-24T03:45:45;22.00;99.90
5919;DHT22;2985;48.142;16.344;2022-07-24T03:50:36;22.10;99.90
5919;DHT22;2985;48.142;16.344;2022-07-24T03:55:27;22.20;99.90
5919;DHT22;2985;48.142;16.344;2022-07-24T04:00:18;22.20;99.90
5919;DHT22;2985;48.142;16.344;2022-07-24T04:05:09;22.10;99.90
5919;DHT22;2985;48.142;16.344;2022-07-24T04:10:00;22.00;99.90
5919;DHT22;2985;48.142;16.344;2022-07-24T04:14:51;22.00;99.90
5919;DHT22;2985;48.142;16.344;2022-07-24T04:19:42;21.90;99.90
5919;DHT22;2985;48.142;16.344;2022-07-24T04:24:32;21.90;99.90
5919;DHT22;2985;48.142;16.344;2022-07-24T04:29:23;22.30;99.90
5919;DHT22;2985;48.142;16.344;2022-07-24T04:34:14;22.20;99.90
5919;DHT22;2985;48.142;16.344;2022-07-24T04:39:05;22.10;99.90
5919;DHT22;2985;48.142;16.344;2022-07-24T04:43:55;22.10;99.90
5919;DHT22;2985;48.142;16.344;2022-07-24T04:48:46;22.10;99.90
5919;DHT22;2985;48.142;16.344;2022-07-24T04:53:37;22.00;99.90
5919;DHT22;2985;48.142;16.344;2022-07-24T04:58:28;22.20;99.90
5919;DHT22;2985;48.142;16.344;2022-07-24T05:03:19;22.10;99.90
5919;DHT22;2985;48.142;16.344;2022-07-24T05:08:10;22.20;99.90
5919;DHT22;2985;48.142;16.344;2022-07-24T05:13:01;22.20;99.90
5919;DHT22;2985;48.142;16.344;2022-07-24T05:17:52;22.30;99.90
5919;DHT22;2985;48.142;16.344;2022-07-24T05:22:42;22.30;99.90
5919;DHT22;2985;48.142;16.344;2022-07-24T05:27:33;22.30;99.90
5919;DHT22;2985;48.142;16.344;2022-07-24T05:32:24;22.30;99.90
5919;DHT22;2985;48.142;16.344;2022-07-24T05:37:15;22.40;99.90
5919;DHT22;2985;48.142;16.344;2022-07-24T05:42:06;22.70;99.90
5919;DHT22;2985;48.142;16.344;2022-07-24T05:46:57;23.00;99.90
5919;DHT22;2985;48.142;16.344;2022-07-24T05:51:47;22.90;99.90
5919;DHT22;2985;48.142;16.344;2022-07-24T05:56:38;23.10;99.90
5919;DHT22;2985;48.142;16.344;2022-07-24T06:01:29;23.00;99.90
5919;DHT22;2985;48.142;16.344;2022-07-24T06:06:19;23.20;99.90
5919;DHT22;2985;48.142;16.344;2022-07-24T06:11:10;23.30;99.90
5919;DHT22;2985;48.142;16.344;2022-07-24T06:16:01;23.20;99.90
5919;DHT22;2985;48.142;16.344;2022-07-24T06:20:52;23.20;99.90
5919;DHT22;2985;48.142;16.344;2022-07-24T06:25:43;23.50;98.90
5919;DHT22;2985;48.142;16.344;2022-07-24T06:30:33;23.60;99.30
5919;DHT22;2985;48.142;16.344;2022-07-24T06:35:25;23.90;98.10
5919;DHT22;2985;48.142;16.344;2022-07-24T06:40:18;23.80;97.60
5919;DHT22;2985;48.142;16.344;2022-07-24T06:45:09;24.10;96.10
5919;DHT22;2985;48.142;16.344;2022-07-24T06:50:00;24.10;95.20
5919;DHT22;2985;48.142;16.344;2022-07-24T06:54:51;24.00;95.80
5919;DHT22;2985;48.142;16.344;2022-07-24T06:59:42;24.00;95.80
5919;DHT22;2985;48.142;16.344;2022-07-24T07:04:33;24.50;95.20
5919;DHT22;2985;48.142;16.344;2022-07-24T07:09:24;24.40;94.40
5919;DHT22;2985;48.142;16.344;2022-07-24T07:14:15;24.40;93.90
5919;DHT22;2985;48.142;16.344;2022-07-24T07:19:05;24.40;93.30
5919;DHT22;2985;48.142;16.344;2022-07-24T07:23:56;24.50;93.50
5919;DHT22;2985;48.142;16.344;2022-07-24T07:28:47;24.60;93.10
5919;DHT22;2985;48.142;16.344;2022-07-24T07:33:38;24.40;93.50
5919;DHT22;2985;48.142;16.344;2022-07-24T07:38:28;24.50;92.70
5919;DHT22;2985;48.142;16.344;2022-07-24T07:43:19;24.50;91.40
5919;DHT22;2985;48.142;16.344;2022-07-24T07:48:10;24.80;89.40
5919;DHT22;2985;48.142;16.344;2022-07-24T07:53:01;25.10;87.60
5919;DHT22;2985;48.142;16.344;2022-07-24T07:57:52;25.30;86.80
5919;DHT22;2985;48.142;16.344;2022-07-24T08:02:42;25.30;87.20
5919;DHT22;2985;48.142;16.344;2022-07-24T08:07:34;25.00;86.30
5919;DHT22;2985;48.142;16.344;2022-07-24T08:12:25;25.20;83.40
5919;DHT22;2985;48.142;16.344;2022-07-24T08:17:16;25.20;81.80
5919;DHT22;2985;48.142;16.344;2022-07-24T08:22:06;25.20;81.50
5919;DHT22;2985;48.142;16.344;2022-07-24T08:26:57;25.40;79.80
5919;DHT22;2985;48.142;16.344;2022-07-24T08:31:48;25.70;74.50
5919;DHT22;2985;48.142;16.344;2022-07-24T08:36:39;26.00;76.40
5919;DHT22;2985;48.142;16.344;2022-07-24T08:41:31;26.50;73.30
5919;DHT22;2985;48.142;16.344;2022-07-24T08:46:27;26.30;74.10
5919;DHT22;2985;48.142;16.344;2022-07-24T08:51:18;26.20;70.60
5919;DHT22;2985;48.142;16.344;2022-07-24T08:56:10;26.50;71.50
5919;DHT22;2985;48.142;16.344;2022-07-24T09:01:00;26.50;72.90
5919;DHT22;2985;48.142;16.344;2022-07-24T09:05:56;27.00;67.70
5919;DHT22;2985;48.142;16.344;2022-07-24T09:10:57;26.80;68.70
5919;DHT22;2985;48.142;16.344;2022-07-24T09:15:54;26.40;69.20
5919;DHT22;2985;48.142;16.344;2022-07-24T09:20:45;26.60;65.80
5919;DHT22;2985;48.142;16.344;2022-07-24T09:25:35;26.80;68.40
5919;DHT22;2985;48.142;16.344;2022-07-24T09:30:30;26.80;67.90
5919;DHT22;2985;48.142;16.344;2022-07-24T09:35:49;27.00;68.70
5919;DHT22;2985;48.142;16.344;2022-07-24T09:40:44;26.80;68.70
5919;DHT22;2985;48.142;16.344;2022-07-24T09:50:55;27.40;65.70
5919;DHT22;2985;48.142;16.344;2022-07-24T09:56:19;27.30;66.40
5919;DHT22;2985;48.142;16.344;2022-07-24T10:01:10;27.40;65.10
5919;DHT22;2985;48.142;16.344;2022-07-24T10:06:04;28.00;65.60
5919;DHT22;2985;48.142;16.344;2022-07-24T10:10:55;28.10;62.70
5919;DHT22;2985;48.142;16.344;2022-07-24T10:20:47;28.30;61.40
5919;DHT22;2985;48.142;16.344;2022-07-24T10:25:52;28.40;61.00
5919;DHT22;2985;48.142;16.344;2022-07-24T10:30:44;28.60;60.20
5919;DHT22;2985;48.142;16.344;2022-07-24T10:35:35;28.70;59.80
5919;DHT22;2985;48.142;16.344;2022-07-24T10:40:44;28.80;58.60
5919;DHT22;2985;48.142;16.344;2022-07-24T10:45:37;29.00;59.60
5919;DHT22;2985;48.142;16.344;2022-07-24T10:55:48;28.00;58.60
5919;DHT22;2985;48.142;16.344;2022-07-24T11:00:45;28.00;57.50
5919;DHT22;2985;48.142;16.344;2022-07-24T11:05:37;28.10;58.40
5919;DHT22;2985;48.142;16.344;2022-07-24T11:10:51;28.20;58.10
5919;DHT22;2985;48.142;16.344;2022-07-24T11:21:03;28.40;57.20
5919;DHT22;2985;48.142;16.344;2022-07-24T11:26:46;28.50;57.00
5919;DHT22;2985;48.142;16.344;2022-07-24T11:31:33;28.40;57.10
5919;DHT22;2985;48.142;16.344;2022-07-24T11:36:30;28.50;56.20
5919;DHT22;2985;48.142;16.344;2022-07-24T11:41:21;28.70;56.30
5919;DHT22;2985;48.142;16.344;2022-07-24T11:46:12;28.80;56.20
5919;DHT22;2985;48.142;16.344;2022-07-24T11:51:04;28.60;57.20
5919;DHT22;2985;48.142;16.344;2022-07-24T11:56:03;28.90;56.50
5919;DHT22;2985;48.142;16.344;2022-07-24T12:00:54;29.10;56.00
5919;DHT22;2985;48.142;16.344;2022-07-24T12:05:44;29.10;55.90
5919;DHT22;2985;48.142;16.344;2022-07-24T12:10:35;29.10;56.30
5919;DHT22;2985;48.142;16.344;2022-07-24T12:15:26;28.70;56.80
5919;DHT22;2985;48.142;16.344;2022-07-24T12:20:20;29.60;56.70
5919;DHT22;2985;48.142;16.344;2022-07-24T12:25:11;29.40;56.50
5919;DHT22;2985;48.142;16.344;2022-07-24T12:30:15;29.30;56.70
5919;DHT22;2985;48.142;16.344;2022-07-24T12:35:11;29.70;56.10
5919;DHT22;2985;48.142;16.344;2022-07-24T12:40:02;29.50;56.80
5919;DHT22;2985;48.142;16.344;2022-07-24T12:44:53;30.00;57.30
5919;DHT22;2985;48.142;16.344;2022-07-24T12:49:45;29.70;55.90
5919;DHT22;2985;48.142;16.344;2022-07-24T12:54:45;30.40;55.50
5919;DHT22;2985;48.142;16.344;2022-07-24T12:59:44;30.10;55.30
5919;DHT22;2985;48.142;16.344;2022-07-24T13:04:43;30.00;55.30
5919;DHT22;2985;48.142;16.344;2022-07-24T13:09:35;30.60;55.90
5919;DHT22;2985;48.142;16.344;2022-07-24T13:14:27;30.30;55.40
5919;DHT22;2985;48.142;16.344;2022-07-24T13:19:21;31.10;55.60
5919;DHT22;2985;48.142;16.344;2022-07-24T13:24:12;30.80;55.60
5919;DHT22;2985;48.142;16.344;2022-07-24T13:29:04;30.40;55.50
5919;DHT22;2985;48.142;16.344;2022-07-24T13:33:55;30.10;55.50
5919;DHT22;2985;48.142;16.344;2022-07-24T13:38:46;30.70;55.30
5919;DHT22;2985;48.142;16.344;2022-07-24T13:43:37;31.20;53.90
5919;DHT22;2985;48.142;16.344;2022-07-24T13:48:28;30.90;54.80
5919;DHT22;2985;48.142;16.344;2022-07-24T13:53:19;30.40;54.60
5919;DHT22;2985;48.142;16.344;2022-07-24T13:58:11;30.80;54.60
5919;DHT22;2985;48.142;16.344;2022-07-24T14:03:02;30.70;54.20
5919;DHT22;2985;48.142;16.344;2022-07-24T14:07:53;31.00;54.00
5919;DHT22;2985;48.142;16.344;2022-07-24T14:12:44;30.60;54.20
5919;DHT22;2985;48.142;16.344;2022-07-24T14:17:35;31.00;53.50
5919;DHT22;2985;48.142;16.344;2022-07-24T14:22:26;31.50;54.10
5919;DHT22;2985;48.142;16.344;2022-07-24T14:27:17;31.40;52.70
5919;DHT22;2985;48.142;16.344;2022-07-24T14:32:08;30.80;53.30
5919;DHT22;2985;48.142;16.344;2022-07-24T14:36:59;31.30;53.60
5919;DHT22;2985;48.142;16.344;2022-07-24T14:41:49;31.90;53.60
5919;DHT22;2985;48.142;16.344;2022-07-24T14:46:40;32.20;52.30
5919;DHT22;2985;48.142;16.344;2022-07-24T14:51:31;32.30;52.20
5919;DHT22;2985;48.142;16.344;2022-07-24T14:56:22;32.10;52.80
5919;DHT22;2985;48.142;16.344;2022-07-24T15:01:13;32.10;51.70
5919;DHT22;2985;48.142;16.344;2022-07-24T15:06:04;31.80;51.10
5919;DHT22;2985;48.142;16.344;2022-07-24T15:10:55;32.70;51.10
5919;DHT22;2985;48.142;16.344;2022-07-24T15:15:45;36.60;50.50
5919;DHT22;2985;48.142;16.344;2022-07-24T15:20:36;39.40;45.30
5919;DHT22;2985;48.142;16.344;2022-07-24T15:25:27;43.70;46.30
5919;DHT22;2985;48.142;16.344;2022-07-24T15:30:19;38.90;43.10
5919;DHT22;2985;48.142;16.344;2022-07-24T15:35:10;37.10;43.90
5919;DHT22;2985;48.142;16.344;2022-07-24T15:40:04;37.00;44.80
5919;DHT22;2985;48.142;16.344;2022-07-24T15:44:55;39.20;44.10
5919;DHT22;2985;48.142;16.344;2022-07-24T15:49:45;39.00;43.60
5919;DHT22;2985;48.142;16.344;2022-07-24T15:54:36;36.70;42.90
5919;DHT22;2985;48.142;16.344;2022-07-24T15:59:27;34.60;45.70
5919;DHT22;2985;48.142;16.344;2022-07-24T16:04:17;33.50;47.10
5919;DHT22;2985;48.142;16.344;2022-07-24T16:09:08;33.20;47.60
5919;DHT22;2985;48.142;16.344;2022-07-24T16:13:59;32.70;47.80
5919;DHT22;2985;48.142;16.344;2022-07-24T16:18:50;33.40;47.60
5919;DHT22;2985;48.142;16.344;2022-07-24T16:23:40;33.90;47.20
5919;DHT22;2985;48.142;16.344;2022-07-24T16:28:31;33.80;47.30
5919;DHT22;2985;48.142;16.344;2022-07-24T16:33:22;32.60;47.50
5919;DHT22;2985;48.142;16.344;2022-07-24T16:38:13;32.00;48.30
5919;DHT22;2985;48.142;16.344;2022-07-24T16:43:04;31.50;48.80
5919;DHT22;2985;48.142;16.344;2022-07-24T16:47:54;31.90;49.00
5919;DHT22;2985;48.142;16.344;2022-07-24T16:52:45;31.60;49.20
5919;DHT22;2985;48.142;16.344;2022-07-24T16:57:36;31.90;48.90
5919;DHT22;2985;48.142;16.344;2022-07-24T17:02:27;31.10;49.50
5919;DHT22;2985;48.142;16.344;2022-07-24T17:07:17;30.80;49.80
5919;DHT22;2985;48.142;16.344;2022-07-24T17:12:08;31.20;49.80
5919;DHT22;2985;48.142;16.344;2022-07-24T17:17:01;30.90;50.10
5919;DHT22;2985;48.142;16.344;2022-07-24T17:21:59;30.80;50.20
5919;DHT22;2985;48.142;16.344;2022-07-24T17:26:50;30.90;50.20
5919;DHT22;2985;48.142;16.344;2022-07-24T17:31:41;31.10;50.10
5919;DHT22;2985;48.142;16.344;2022-07-24T17:36:31;31.20;50.10
5919;DHT22;2985;48.142;16.344;2022-07-24T17:41:22;31.20;50.00
5919;DHT22;2985;48.142;16.344;2022-07-24T17:46:13;31.40;49.90
5919;DHT22;2985;48.142;16.344;2022-07-24T17:51:04;31.30;49.90
5919;DHT22;2985;48.142;16.344;2022-07-24T17:55:55;31.10;49.90
5919;DHT22;2985;48.142;16.344;2022-07-24T18:00:46;31.40;50.20
5919;DHT22;2985;48.142;16.344;2022-07-24T18:05:36;31.20;50.30
5919;DHT22;2985;48.142;16.344;2022-07-24T18:10:27;30.80;50.50
5919;DHT22;2985;48.142;16.344;2022-07-24T18:15:19;30.60;50.70
5919;DHT22;2985;48.142;16.344;2022-07-24T18:20:10;30.40;50.80
5919;DHT22;2985;48.142;16.344;2022-07-24T18:25:02;30.30;50.90
5919;DHT22;2985;48.142;16.344;2022-07-24T18:29:53;30.00;51.00
5919;DHT22;2985;48.142;16.344;2022-07-24T18:34:44;29.60;51.30
5919;DHT22;2985;48.142;16.344;2022-07-24T18:39:35;29.40;51.50
5919;DHT22;2985;48.142;16.344;2022-07-24T18:44:26;29.20;51.70
5919;DHT22;2985;48.142;16.344;2022-07-24T18:49:16;28.90;51.80
5919;DHT22;2985;48.142;16.344;2022-07-24T18:54:07;28.70;52.40
5919;DHT22;2985;48.142;16.344;2022-07-24T18:58:58;28.50;52.70
5919;DHT22;2985;48.142;16.344;2022-07-24T19:03:49;28.40;52.90
5919;DHT22;2985;48.142;16.344;2022-07-24T19:08:40;28.20;52.80
5919;DHT22;2985;48.142;16.344;2022-07-24T19:13:30;28.20;53.10
5919;DHT22;2985;48.142;16.344;2022-07-24T19:18:21;28.10;53.30
5919;DHT22;2985;48.142;16.344;2022-07-24T19:23:12;27.90;53.20
5919;DHT22;2985;48.142;16.344;2022-07-24T19:28:03;27.90;53.40
5919;DHT22;2985;48.142;16.344;2022-07-24T19:32:54;27.80;53.70
5919;DHT22;2985;48.142;16.344;2022-07-24T19:37:44;27.70;53.70
5919;DHT22;2985;48.142;16.344;2022-07-24T19:42:35;27.60;54.60
5919;DHT22;2985;48.142;16.344;2022-07-24T19:47:26;27.50;54.30
5919;DHT22;2985;48.142;16.344;2022-07-24T19:52:18;27.40;54.30
5919;DHT22;2985;48.142;16.344;2022-07-24T19:57:09;27.40;54.40
5919;DHT22;2985;48.142;16.344;2022-07-24T20:01:59;27.30;54.60
5919;DHT22;2985;48.142;16.344;2022-07-24T20:06:50;27.20;54.60
5919;DHT22;2985;48.142;16.344;2022-07-24T20:11:41;27.10;54.80
5919;DHT22;2985;48.142;16.344;2022-07-24T20:16:32;27.00;55.00
5919;DHT22;2985;48.142;16.344;2022-07-24T20:21:23;27.00;55.40
5919;DHT22;2985;48.142;16.344;2022-07-24T20:26:13;27.00;56.10
5919;DHT22;2985;48.142;16.344;2022-07-24T20:31:04;26.80;57.50
5919;DHT22;2985;48.142;16.344;2022-07-24T20:40:48;26.40;59.40
5919;DHT22;2985;48.142;16.344;2022-07-24T20:45:38;26.30;60.50
5919;DHT22;2985;48.142;16.344;2022-07-24T20:50:29;26.00;62.00
5919;DHT22;2985;48.142;16.344;2022-07-24T20:55:20;25.70;63.30
5919;DHT22;2985;48.142;16.344;2022-07-24T21:00:13;25.70;62.80
5919;DHT22;2985;48.142;16.344;2022-07-24T21:05:04;25.90;62.00
5919;DHT22;2985;48.142;16.344;2022-07-24T21:09:55;25.80;62.20
5919;DHT22;2985;48.142;16.344;2022-07-24T21:14:46;25.60;63.90
5919;DHT22;2985;48.142;16.344;2022-07-24T21:19:37;25.40;63.80
5919;DHT22;2985;48.142;16.344;2022-07-24T21:24:28;25.40;63.80
5919;DHT22;2985;48.142;16.344;2022-07-24T21:29:19;25.20;65.40
5919;DHT22;2985;48.142;16.344;2022-07-24T21:34:10;25.20;65.20
5919;DHT22;2985;48.142;16.344;2022-07-24T21:39:01;24.80;67.20
5919;DHT22;2985;48.142;16.344;2022-07-24T21:43:51;24.50;69.20
5919;DHT22;2985;48.142;16.344;2022-07-24T21:48:42;24.60;68.50
5919;DHT22;2985;48.142;16.344;2022-07-24T21:53:33;24.80;67.70
5919;DHT22;2985;48.142;16.344;2022-07-24T21:58:24;24.80;67.50
5919;DHT22;2985;48.142;16.344;2022-07-24T22:03:15;24.70;67.90
5919;DHT22;2985;48.142;16.344;2022-07-24T22:08:06;24.30;68.90
5919;DHT22;2985;48.142;16.344;2022-07-24T22:12:57;24.50;68.70
5919;DHT22;2985;48.142;16.344;2022-07-24T22:17:48;24.20;69.90
5919;DHT22;2985;48.142;16.344;2022-07-24T22:22:39;24.10;70.40
5919;DHT22;2985;48.142;16.344;2022-07-24T22:27:30;24.20;70.10
5919;DHT22;2985;48.142;16.344;2022-07-24T22:32:21;24.20;70.40
5919;DHT22;2985;48.142;16.344;2022-07-24T22:37:12;24.30;70.20
5919;DHT22;2985;48.142;16.344;2022-07-24T22:42:06;24.10;70.80
5919;DHT22;2985;48.142;16.344;2022-07-24T22:46:58;24.10;71.00
5919;DHT22;2985;48.142;16.344;2022-07-24T22:51:48;24.10;71.10
5919;DHT22;2985;48.142;16.344;2022-07-24T22:56:39;24.20;70.60
5919;DHT22;2985;48.142;16.344;2022-07-24T23:01:31;23.90;72.00
5919;DHT22;2985;48.142;16.344;2022-07-24T23:06:22;23.70;73.00
5919;DHT22;2985;48.142;16.344;2022-07-24T23:11:13;23.60;72.90
5919;DHT22;2985;48.142;16.344;2022-07-24T23:16:04;23.70;73.40
5919;DHT22;2985;48.142;16.344;2022-07-24T23:20:55;23.70;73.20
5919;DHT22;2985;48.142;16.344;2022-07-24T23:25:46;23.30;74.80
5919;DHT22;2985;48.142;16.344;2022-07-24T23:30:36;23.20;75.30
5919;DHT22;2985;48.142;16.344;2022-07-24T23:35:27;22.90;78.20
5919;DHT22;2985;48.142;16.344;2022-07-24T23:40:18;23.10;77.70
5919;DHT22;2985;48.142;16.344;2022-07-24T23:45:09;22.90;79.00
5919;DHT22;2985;48.142;16.344;2022-07-24T23:50:00;22.70;80.50
5919;DHT22;2985;48.142;16.344;2022-07-24T23:54:50;22.60;81.70
5919;DHT22;2985;48.142;16.344;2022-07-24T23:59:41;22.70;80.90
